Time;durP1;ratioP1;P1;durP2;ratioP2;P2;SDS_P1;SDS_P2;PMS_P1;PMS_P2;Temp;Humidity;BMP_temperature;BMP_pressure;BME280_temperature;BME280_humidity;BME280_pressure;Samples;Min_cycle;Max_cycle;Signal;HPM_P1;HPM_P2
2021/08/16 00:01:08;;;;;;;4.80;3.50;;;;;;;19.38;73.48;100760.56;2616877;54;20139;-74
2021/08/16 00:03:33;;;;;;;5.43;3.20;;;;;;;19.34;72.80;100751.13;2616366;54;20127;-77
2021/08/16 00:05:59;;;;;;;4.40;2.47;;;;;;;18.92;74.37;100724.13;2617034;54;20676;-77
2021/08/16 00:08:24;;;;;;;4.87;2.80;;;;;;;18.76;75.35;100727.00;2617385;39;20615;-76
2021/08/16 00:10:50;;;;;;;6.87;3.43;;;;;;;18.82;75.65;100724.28;2617650;54;20155;-78
2021/08/16 00:13:15;;;;;;;7.33;4.00;;;;;;;19.13;74.47;100728.97;2618044;54;20143;-77
2021/08/16 00:15:40;;;;;;;6.13;3.67;;;;;;;19.23;74.30;100732.28;2618141;54;20240;-76
2021/08/16 00:18:06;;;;;;;5.80;3.50;;;;;;;19.04;75.09;100718.72;2618060;54;20208;-77
2021/08/16 00:20:32;;;;;;;5.10;3.27;;;;;;;18.94;75.22;100721.50;2617667;54;20139;-77
2021/08/16 00:22:57;;;;;;;5.97;4.07;;;;;;;18.93;75.72;100714.59;2618044;54;20158;-75
2021/08/16 00:25:23;;;;;;;9.40;4.40;;;;;;;18.58;76.86;100709.09;2618235;54;20186;-77
2021/08/16 00:27:48;;;;;;;7.83;4.60;;;;;;;18.73;76.17;100712.31;2618067;54;20143;-77
2021/08/16 00:30:14;;;;;;;7.00;4.00;;;;;;;18.64;76.58;100711.59;2617589;54;20166;-77
2021/08/16 00:32:39;;;;;;;8.57;4.50;;;;;;;18.67;75.79;100699.47;2617788;54;20136;-76
2021/08/16 00:35:05;;;;;;;6.73;3.53;;;;;;;18.70;75.71;100701.16;2617911;54;20222;-77
2021/08/16 00:37:30;;;;;;;7.73;4.13;;;;;;;18.75;76.15;100707.94;2617416;54;20142;-77
2021/08/16 00:39:55;;;;;;;7.40;4.50;;;;;;;18.70;76.08;100708.94;2617737;54;20665;-78
2021/08/16 00:42:21;;;;;;;8.57;3.87;;;;;;;18.98;75.91;100739.59;2618512;46;20678;-77
2021/08/16 00:44:46;;;;;;;8.50;4.37;;;;;;;18.73;76.02;100738.28;2617733;54;20158;-76
2021/08/16 00:47:13;;;;;;;7.23;4.20;;;;;;;18.56;77.09;100729.88;2617704;54;20183;-78
2021/08/16 00:49:39;;;;;;;5.47;3.80;;;;;;;18.40;77.47;100709.38;2617797;54;20222;-77
2021/08/16 00:52:04;;;;;;;6.43;3.93;;;;;;;18.44;77.57;100709.31;2617440;47;20135;-79
2021/08/16 00:54:30;;;;;;;7.57;4.70;;;;;;;18.40;77.37;100705.06;2618240;54;20131;-77
2021/08/16 00:56:58;;;;;;;6.37;4.40;;;;;;;18.50;76.99;100709.22;2617187;54;20120;-77
2021/08/16 00:59:23;;;;;;;10.33;4.30;;;;;;;18.45;77.33;100707.56;2617484;54;20236;-76
2021/08/16 01:01:48;;;;;;;5.80;4.63;;;;;;;18.47;76.58;100705.81;2618013;54;20124;-77
2021/08/16 01:04:14;;;;;;;6.47;4.40;;;;;;;18.50;77.22;100726.50;2617826;47;20150;-77
2021/08/16 01:06:40;;;;;;;6.27;4.13;;;;;;;18.56;76.67;100732.47;2617735;54;20131;-77
2021/08/16 01:09:05;;;;;;;7.73;4.60;;;;;;;18.54;76.52;100715.22;2617610;54;20140;-76
2021/08/16 01:11:32;;;;;;;6.53;4.40;;;;;;;18.38;77.36;100693.84;2617436;54;20159;-75
2021/08/16 01:13:57;;;;;;;6.83;4.20;;;;;;;18.14;78.01;100698.50;2617545;54;20182;-76
2021/08/16 01:16:23;;;;;;;7.43;4.10;;;;;;;18.11;78.12;100675.19;2617824;46;20135;-78
2021/08/16 01:18:49;;;;;;;8.13;4.30;;;;;;;18.08;78.29;100683.88;2617518;54;20186;-77
2021/08/16 01:21:17;;;;;;;10.33;4.53;;;;;;;18.00;78.66;100674.50;2617449;54;20151;-77
2021/08/16 01:23:44;;;;;;;8.73;4.83;;;;;;;17.87;79.13;100697.09;2617648;54;20709;-77
2021/08/16 01:26:09;;;;;;;7.90;4.40;;;;;;;18.13;77.94;100700.22;2617288;54;20139;-77
2021/08/16 01:28:35;;;;;;;6.27;4.50;;;;;;;18.20;77.24;100706.19;2617211;54;20202;-78
2021/08/16 01:31:03;;;;;;;6.80;3.90;;;;;;;18.07;77.87;100713.28;2617119;54;20131;-77
2021/08/16 01:33:29;;;;;;;7.07;4.53;;;;;;;18.28;76.85;100718.16;2616884;54;20144;-78
2021/08/16 01:35:55;;;;;;;5.73;4.37;;;;;;;18.28;77.25;100709.53;2616893;54;20222;-78
2021/08/16 01:38:24;;;;;;;5.50;4.10;;;;;;;17.98;77.77;100689.19;2616954;54;20158;-77
2021/08/16 01:40:50;;;;;;;7.63;3.93;;;;;;;17.92;77.91;100678.91;2616869;54;20138;-78
2021/08/16 01:43:15;;;;;;;6.43;4.20;;;;;;;17.81;78.56;100679.06;2616826;54;20124;-77
2021/08/16 01:45:40;;;;;;;5.77;3.63;;;;;;;17.58;79.16;100665.53;2616947;54;20158;-78
2021/08/16 01:48:06;;;;;;;4.07;2.80;;;;;;;17.40;79.54;100652.78;2616954;54;20661;-78
2021/08/16 01:50:32;;;;;;;4.17;3.27;;;;;;;17.23;79.85;100653.81;2616463;54;20223;-77
2021/08/16 01:52:58;;;;;;;4.33;2.50;;;;;;;17.06;79.94;100645.38;2616873;54;20151;-77
2021/08/16 01:55:23;;;;;;;3.97;2.90;;;;;;;16.97;80.60;100648.91;2616636;54;20139;-78
2021/08/16 01:57:49;;;;;;;6.73;4.00;;;;;;;16.96;80.63;100648.91;2616718;54;20167;-77
2021/08/16 02:00:15;;;;;;;5.20;2.93;;;;;;;16.81;80.67;100646.47;2616697;54;20143;-79
2021/08/16 02:02:40;;;;;;;4.40;4.00;;;;;;;16.98;80.50;100647.16;2616723;54;20141;-75
2021/08/16 02:05:06;;;;;;;5.53;3.83;;;;;;;16.91;80.83;100651.53;2616574;46;20150;-78
2021/08/16 02:07:31;;;;;;;5.57;4.10;;;;;;;16.84;80.94;100651.59;2616781;54;20178;-77
2021/08/16 02:09:56;;;;;;;6.17;3.70;;;;;;;16.76;81.16;100650.84;2617719;54;20737;-79
2021/08/16 02:12:22;;;;;;;5.53;3.70;;;;;;;16.79;81.15;100658.56;2618119;54;20135;-78
2021/08/16 02:14:47;;;;;;;6.77;4.30;;;;;;;16.76;81.00;100672.38;2618801;54;20180;-79
2021/08/16 02:17:12;;;;;;;7.67;4.30;;;;;;;16.89;81.19;100673.13;2617594;47;20183;-77
2021/08/16 02:19:38;;;;;;;6.07;4.23;;;;;;;16.89;80.80;100675.69;2616683;54;20134;-78
2021/08/16 02:22:03;;;;;;;9.27;4.77;;;;;;;17.13;80.26;100676.34;2617167;39;20620;-76
2021/08/16 02:24:29;;;;;;;9.63;4.33;;;;;;;17.08;79.68;100666.94;2616604;54;20167;-77
2021/08/16 02:26:54;;;;;;;9.60;5.17;;;;;;;17.19;78.74;100676.28;2616909;54;20231;-78
2021/08/16 02:29:19;;;;;;;8.63;4.83;;;;;;;17.07;78.98;100678.13;2616795;54;20219;-78
2021/08/16 02:31:44;;;;;;;5.23;3.93;;;;;;;17.04;79.68;100671.25;2615978;47;20130;-78
2021/08/16 02:34:10;;;;;;;6.33;4.73;;;;;;;17.04;79.88;100670.41;2617003;47;20135;-76
2021/08/16 02:36:35;;;;;;;6.93;4.10;;;;;;;16.83;80.58;100665.41;2616756;54;20150;-77
2021/08/16 02:39:01;;;;;;;8.00;4.50;;;;;;;16.89;80.75;100661.06;2616614;54;20135;-77
2021/08/16 02:41:26;;;;;;;5.90;4.33;;;;;;;16.73;80.94;100658.63;2616833;54;20171;-78
2021/08/16 02:43:51;;;;;;;7.30;4.90;;;;;;;16.75;80.62;100659.44;2616697;54;20131;-77
2021/08/16 02:46:19;;;;;;;6.17;3.80;;;;;;;16.70;81.00;100658.63;2616988;47;20148;-77
2021/08/16 02:48:45;;;;;;;5.73;3.60;;;;;;;16.57;81.17;100663.06;2617031;39;20532;-78
2021/08/16 02:51:10;;;;;;;5.53;3.67;;;;;;;16.47;81.78;100665.72;2616639;54;20162;-76
2021/08/16 02:53:35;;;;;;;7.17;4.33;;;;;;;16.45;81.67;100651.94;2617013;47;20136;-77
2021/08/16 02:56:00;;;;;;;5.93;3.83;;;;;;;16.44;81.81;100650.25;2616596;54;20130;-78
2021/08/16 02:58:25;;;;;;;6.00;4.07;;;;;;;16.45;81.77;100655.41;2616843;47;20653;-78
2021/08/16 03:00:51;;;;;;;6.27;4.00;;;;;;;16.53;81.51;100653.59;2617261;47;20112;-76
2021/08/16 03:03:16;;;;;;;6.47;3.90;;;;;;;16.54;81.44;100649.31;2617680;54;20138;-78
2021/08/16 03:05:41;;;;;;;8.20;4.87;;;;;;;16.70;81.01;100643.13;2617522;54;20124;-77
2021/08/16 03:08:07;;;;;;;7.07;4.47;;;;;;;16.80;80.41;100626.69;2617892;39;20554;-76
2021/08/16 03:10:33;;;;;;;7.50;4.60;;;;;;;16.71;80.79;100619.00;2617440;47;20120;-77
2021/08/16 03:12:59;;;;;;;6.27;4.53;;;;;;;16.71;81.12;100624.16;2617361;54;20127;-77
2021/08/16 03:15:24;;;;;;;10.43;4.27;;;;;;;16.75;80.82;100623.25;2617425;54;20142;-77
2021/08/16 03:17:50;;;;;;;8.63;5.03;;;;;;;16.76;80.02;100625.81;2617563;39;20202;-77
2021/08/16 03:20:15;;;;;;;5.03;3.53;;;;;;;16.70;80.45;100615.53;2618136;31;20625;-77
2021/08/16 03:22:40;;;;;;;6.70;4.30;;;;;;;16.81;79.99;100615.44;2617165;54;20111;-78
2021/08/16 03:25:06;;;;;;;6.60;4.10;;;;;;;16.65;80.45;100614.72;2616822;47;20155;-78
2021/08/16 03:27:31;;;;;;;7.63;4.40;;;;;;;16.56;80.61;100604.47;2617468;39;20596;-77
2021/08/16 03:29:57;;;;;;;7.27;4.50;;;;;;;16.52;80.92;100607.94;2617045;54;20127;-77
2021/08/16 03:32:22;;;;;;;6.10;3.80;;;;;;;16.51;80.48;100601.06;2617029;54;21024;-77
2021/08/16 03:34:48;;;;;;;6.27;3.87;;;;;;;16.47;80.95;100604.53;2617385;46;20127;-77
2021/08/16 03:37:14;;;;;;;7.70;4.50;;;;;;;16.50;80.71;100595.91;2617189;54;20147;-77
2021/08/16 03:39:39;;;;;;;7.43;4.07;;;;;;;16.47;80.53;100593.31;2616677;47;20154;-77
2021/08/16 03:42:04;;;;;;;9.30;5.23;;;;;;;16.53;80.80;100606.22;2617163;54;20127;-77
2021/08/16 03:44:29;;;;;;;6.50;4.93;;;;;;;16.59;80.56;100598.41;2617183;47;20174;-76
2021/08/16 03:46:55;;;;;;;7.17;4.97;;;;;;;16.65;80.35;100600.94;2616919;54;20200;-78
2021/08/16 03:49:20;;;;;;;6.27;3.87;;;;;;;16.45;81.14;100593.38;2617271;46;20174;-77
2021/08/16 03:51:45;;;;;;;7.80;4.53;;;;;;;16.41;80.98;100590.81;2617281;54;20202;-77
2021/08/16 03:54:11;;;;;;;9.67;4.90;;;;;;;16.40;80.93;100589.09;2617329;54;20255;-76
2021/08/16 03:56:36;;;;;;;6.67;4.30;;;;;;;16.33;80.77;100593.44;2617937;39;20557;-77
2021/08/16 03:59:01;;;;;;;7.20;4.53;;;;;;;16.42;80.75;100583.03;2617288;47;20178;-76
2021/08/16 04:01:26;;;;;;;6.70;4.40;;;;;;;16.43;80.75;100583.88;2617377;54;20147;-77
2021/08/16 04:03:52;;;;;;;9.83;6.40;;;;;;;16.54;80.04;100571.75;2617390;54;20128;-77
2021/08/16 04:06:17;;;;;;;5.90;4.07;;;;;;;16.49;80.67;100584.69;2617490;46;20186;-77
2021/08/16 04:08:43;;;;;;;8.27;5.33;;;;;;;16.56;80.60;100581.19;2617240;54;20186;-77
2021/08/16 04:11:11;;;;;;;9.67;5.80;;;;;;;16.77;79.97;100574.97;2617383;54;20112;-77
2021/08/16 04:13:36;;;;;;;7.70;5.40;;;;;;;17.10;78.72;100572.88;2617434;54;20122;-78
2021/08/16 04:16:02;;;;;;;10.03;5.53;;;;;;;16.84;79.38;100576.59;2617242;54;20131;-77
2021/08/16 04:18:27;;;;;;;9.23;5.40;;;;;;;17.24;79.08;100578.75;2616797;54;20190;-78
2021/08/16 04:20:53;;;;;;;7.03;5.37;;;;;;;16.97;79.97;100567.84;2616426;54;20135;-77
2021/08/16 04:23:18;;;;;;;8.73;5.43;;;;;;;17.12;79.54;100576.28;2617169;54;20115;-77
2021/08/16 04:25:43;;;;;;;9.07;5.67;;;;;;;17.13;79.43;100567.66;2617123;54;20143;-76
2021/08/16 04:28:09;;;;;;;7.10;4.87;;;;;;;17.11;79.94;100566.81;2617039;54;20140;-77
2021/08/16 04:30:34;;;;;;;9.97;5.67;;;;;;;17.42;79.11;100564.75;2617086;54;20171;-77
2021/08/16 04:32:59;;;;;;;8.80;6.07;;;;;;;17.36;78.77;100565.63;2617697;39;20535;-76
2021/08/16 04:35:25;;;;;;;9.47;5.77;;;;;;;17.54;78.71;100565.44;2617246;54;20123;-78
2021/08/16 04:37:50;;;;;;;9.03;6.03;;;;;;;17.66;78.33;100567.88;2617071;54;20149;-77
2021/08/16 04:40:16;;;;;;;9.23;5.83;;;;;;;17.38;78.91;100557.84;2617952;31;20633;-77
2021/08/16 04:42:41;;;;;;;10.03;6.90;;;;;;;17.59;78.51;100561.06;2617114;54;20139;-78
2021/08/16 04:45:09;;;;;;;12.27;7.47;;;;;;;17.80;77.84;100558.19;2617450;39;20537;-77
2021/08/16 04:47:35;;;;;;;13.97;7.67;;;;;;;17.76;78.00;100563.41;2616863;54;20147;-77
2021/08/16 04:50:00;;;;;;;13.37;7.63;;;;;;;17.52;78.77;100561.16;2617096;54;20123;-78
2021/08/16 04:52:26;;;;;;;13.63;7.77;;;;;;;17.64;78.92;100558.41;2617264;54;20690;-79
2021/08/16 04:54:51;;;;;;;13.30;8.13;;;;;;;17.63;78.86;100561.84;2616915;54;20131;-76
2021/08/16 04:57:38;;;;;;;11.90;7.83;;;;;;;17.62;78.81;100558.44;2616872;54;20178;-78
2021/08/16 05:00:09;;;;;;;13.07;8.77;;;;;;;17.64;78.93;100553.22;2616851;54;20151;-77
2021/08/16 05:02:34;;;;;;;10.17;7.53;;;;;;;17.53;79.11;100548.19;2617200;54;20128;-77
2021/08/16 05:05:10;;;;;;;14.20;8.63;;;;;;;17.68;78.69;100557.50;2616752;54;20152;-77
2021/08/16 05:07:36;;;;;;;16.53;8.83;;;;;;;17.77;79.20;100547.84;2617063;54;20151;-79
2021/08/16 05:10:05;;;;;;;15.13;8.83;;;;;;;17.86;78.58;100533.88;2617397;39;20525;-76
2021/08/16 05:12:31;;;;;;;15.83;9.20;;;;;;;17.71;78.99;100540.19;2616829;54;20130;-76
2021/08/16 05:14:56;;;;;;;16.73;10.30;;;;;;;17.88;77.88;100543.38;2616745;54;20120;-78
2021/08/16 05:17:21;;;;;;;14.87;9.93;;;;;;;17.93;78.24;100546.75;2616666;54;20159;-77
2021/08/16 05:19:46;;;;;;;16.50;10.20;;;;;;;18.09;77.45;100545.63;2616854;54;20126;-76
2021/08/16 05:22:12;;;;;;;14.13;9.33;;;;;;;18.08;77.72;100545.66;2616961;47;20135;-78
2021/08/16 05:24:37;;;;;;;17.10;10.37;;;;;;;18.11;77.69;100551.66;2616777;54;20132;-76
2021/08/16 05:27:03;;;;;;;14.43;10.13;;;;;;;18.12;77.56;100548.19;2616851;54;20145;-76
2021/08/16 05:29:29;;;;;;;16.87;9.97;;;;;;;18.13;77.45;100534.34;2616927;54;20116;-77
2021/08/16 05:31:55;;;;;;;19.10;10.73;;;;;;;18.16;77.56;100541.19;2616838;54;20134;-77
2021/08/16 05:34:20;;;;;;;18.40;10.97;;;;;;;18.21;77.03;100548.03;2616799;54;20223;-76
2021/08/16 05:36:45;;;;;;;19.03;11.37;;;;;;;18.13;77.17;100543.84;2616735;54;20158;-77
2021/08/16 05:39:10;;;;;;;18.00;10.90;;;;;;;18.24;77.34;100553.16;2616843;54;20116;-76
2021/08/16 05:41:36;;;;;;;14.33;10.53;;;;;;;18.25;76.71;100549.69;2617007;46;20164;-76
2021/08/16 05:44:01;;;;;;;17.17;10.57;;;;;;;18.06;77.72;100555.19;2616328;47;20142;-77
2021/08/16 05:46:26;;;;;;;15.20;10.80;;;;;;;18.03;78.05;100558.69;2616842;47;20142;-77
2021/08/16 05:48:51;;;;;;;16.40;11.13;;;;;;;18.08;77.73;100554.28;2616755;54;20154;-76
2021/08/16 05:51:17;;;;;;;16.30;10.47;;;;;;;18.08;77.73;100550.81;2616961;47;20872;-78
2021/08/16 05:53:42;;;;;;;16.00;11.60;;;;;;;18.02;77.57;100556.13;2616836;54;20127;-76
2021/08/16 05:56:08;;;;;;;16.17;10.60;;;;;;;18.24;76.81;100558.34;2616825;54;20161;-77
2021/08/16 05:58:33;;;;;;;17.73;10.97;;;;;;;18.27;76.70;100554.84;2616993;39;20544;-76
2021/08/16 06:00:58;;;;;;;17.47;11.37;;;;;;;18.25;76.56;100554.88;2617107;46;20179;-77
2021/08/16 06:03:23;;;;;;;17.17;10.57;;;;;;;18.29;76.81;100553.09;2616884;39;20609;-77
2021/08/16 06:05:49;;;;;;;15.17;10.97;;;;;;;18.26;76.85;100560.91;2616938;46;20212;-78
2021/08/16 06:08:15;;;;;;;19.40;11.67;;;;;;;18.24;76.61;100557.50;2616490;47;20220;-77
2021/08/16 06:10:40;;;;;;;16.57;10.93;;;;;;;18.26;76.92;100553.13;2616915;54;20124;-77
2021/08/16 06:13:05;;;;;;;15.80;10.73;;;;;;;18.35;76.87;100560.78;2616308;47;20131;-76
2021/08/16 06:15:31;;;;;;;17.93;11.30;;;;;;;18.33;76.52;100553.03;2616523;54;20131;-76
2021/08/16 06:17:56;;;;;;;18.20;11.77;;;;;;;18.26;76.50;100556.59;2615872;54;20181;-76
2021/08/16 06:20:21;;;;;;;17.37;10.50;;;;;;;18.25;76.49;100559.19;2616572;47;20183;-77
2021/08/16 06:22:46;;;;;;;20.17;11.10;;;;;;;18.41;75.64;100546.00;2616296;54;20122;-78
2021/08/16 06:25:12;;;;;;;18.47;11.67;;;;;;;18.32;76.40;100553.88;2616086;51;20664;-76
2021/08/16 06:27:37;;;;;;;16.57;11.03;;;;;;;18.39;75.92;100546.91;2616744;39;20584;-77
2021/08/16 06:30:03;;;;;;;19.73;11.60;;;;;;;18.33;76.00;100547.00;2617315;54;20123;-77
2021/08/16 06:32:29;;;;;;;19.27;11.27;;;;;;;18.41;75.35;100534.75;2617448;54;20124;-76
2021/08/16 06:34:55;;;;;;;19.60;11.73;;;;;;;18.48;75.43;100542.41;2618985;54;20132;-77
2021/08/16 06:37:20;;;;;;;17.77;11.70;;;;;;;18.22;76.38;100543.69;2618310;54;20219;-77
2021/08/16 06:39:46;;;;;;;18.77;11.27;;;;;;;18.23;75.93;100541.06;2617363;47;20183;-76
2021/08/16 06:42:11;;;;;;;23.73;11.60;;;;;;;18.42;75.64;100534.72;2617267;54;20175;-77
2021/08/16 06:44:37;;;;;;;19.60;11.10;;;;;;;18.53;76.16;100535.41;2617211;54;20131;-76
2021/08/16 06:47:03;;;;;;;18.33;10.20;;;;;;;18.48;76.47;100531.19;2617312;54;20155;-78
2021/08/16 06:49:28;;;;;;;22.20;10.33;;;;;;;18.56;74.53;100532.75;2617910;54;20131;-78
2021/08/16 06:51:53;;;;;;;18.17;10.00;;;;;;;18.61;74.85;100543.88;2617312;54;20155;-77
2021/08/16 06:54:19;;;;;;;17.27;10.97;;;;;;;18.64;74.69;100545.56;2617094;47;20203;-77
2021/08/16 06:56:44;;;;;;;21.00;9.80;;;;;;;18.64;74.52;100548.16;2617262;54;20147;-76
2021/08/16 06:59:10;;;;;;;19.97;10.37;;;;;;;18.63;74.47;100546.47;2617157;54;20139;-78
2021/08/16 07:01:35;;;;;;;23.10;10.50;;;;;;;18.39;75.60;100541.72;2617167;46;20142;-78
2021/08/16 07:04:00;;;;;;;19.43;10.03;;;;;;;18.64;75.10;100540.38;2617306;54;20147;-76
2021/08/16 07:06:27;;;;;;;20.43;10.67;;;;;;;18.70;74.60;100548.91;2617237;54;20748;-77
2021/08/16 07:08:53;;;;;;;16.50;9.30;;;;;;;18.67;74.35;100542.94;2617343;54;20143;-77
2021/08/16 07:11:18;;;;;;;16.60;9.60;;;;;;;18.76;73.98;100556.59;2616929;54;20231;-77
2021/08/16 07:13:43;;;;;;;17.40;10.00;;;;;;;18.78;74.12;100541.84;2617300;46;20135;-77
2021/08/16 07:16:09;;;;;;;20.73;10.63;;;;;;;18.68;73.46;100547.22;2617484;54;20147;-76
2021/08/16 07:18:34;;;;;;;20.03;10.27;;;;;;;18.85;73.20;100550.38;2618076;39;20563;-76
2021/08/16 07:21:01;;;;;;;19.63;9.70;;;;;;;18.71;74.19;100548.06;2617269;54;20167;-78
2021/08/16 07:23:26;;;;;;;15.60;9.17;;;;;;;18.86;73.15;100550.34;2616763;54;20140;-77
2021/08/16 07:25:52;;;;;;;17.23;8.90;;;;;;;18.94;72.63;100547.59;2617173;46;20672;-77
2021/08/16 07:28:17;;;;;;;20.33;9.20;;;;;;;18.85;73.29;100550.38;2617195;54;20167;-76
2021/08/16 07:30:42;;;;;;;20.60;10.10;;;;;;;18.99;72.82;100548.38;2616797;47;20182;-77
2021/08/16 07:33:07;;;;;;;20.67;9.70;;;;;;;18.94;72.52;100545.00;2616738;54;20186;-77
2021/08/16 07:35:32;;;;;;;22.33;10.37;;;;;;;18.80;73.60;100547.84;2617041;46;20178;-77
2021/08/16 07:37:58;;;;;;;19.00;9.40;;;;;;;18.83;73.29;100549.56;2617025;47;20187;-76
2021/08/16 07:40:24;;;;;;;17.67;9.43;;;;;;;19.03;72.34;100547.44;2616506;54;20148;-76
2021/08/16 07:42:49;;;;;;;20.23;10.63;;;;;;;18.85;72.21;100553.84;2617170;54;20759;-77
2021/08/16 07:45:16;;;;;;;14.47;9.40;;;;;;;18.81;73.12;100549.59;2628421;36;20135;-76
2021/08/16 07:47:41;;;;;;;18.03;9.10;;;;;;;18.81;73.34;100556.50;2615431;54;20174;-76
2021/08/16 07:50:10;;;;;;;19.27;8.87;;;;;;;19.04;72.03;100551.72;2616518;54;20135;-78
2021/08/16 07:52:41;;;;;;;17.33;9.00;;;;;;;19.09;71.48;100561.16;2616960;39;20565;-77
2021/08/16 07:55:08;;;;;;;20.40;9.53;;;;;;;19.03;71.70;100552.63;2616332;54;20132;-77
2021/08/16 07:57:33;;;;;;;21.70;9.30;;;;;;;18.96;71.83;100553.59;2616346;54;20135;-75
2021/08/16 08:00:00;;;;;;;20.90;9.30;;;;;;;18.78;73.03;100553.94;2616463;54;20139;-77
2021/08/16 08:02:26;;;;;;;17.50;8.83;;;;;;;19.00;71.61;100556.13;2616757;54;20211;-75
2021/08/16 08:04:51;;;;;;;14.50;8.27;;;;;;;19.12;70.99;100550.69;2616242;54;20192;-76
2021/08/16 08:07:17;;;;;;;19.27;9.43;;;;;;;19.01;71.85;100554.38;2616205;54;20152;-75
2021/08/16 08:09:42;;;;;;;17.67;8.57;;;;;;;19.11;71.81;100540.34;2616272;46;20151;-74
2021/08/16 08:12:07;;;;;;;17.33;8.23;;;;;;;19.14;71.55;100537.69;2616179;47;20147;-76
2021/08/16 08:14:33;;;;;;;16.77;8.13;;;;;;;19.21;70.38;100542.72;2616716;54;20124;-77
2021/08/16 08:16:59;;;;;;;15.97;8.43;;;;;;;19.37;70.06;100544.16;2616435;54;20641;-75
2021/08/16 08:19:25;;;;;;;15.60;7.80;;;;;;;19.45;69.85;100538.78;2616651;54;20215;-77
2021/08/16 08:21:50;;;;;;;16.37;7.83;;;;;;;19.37;70.20;100538.09;2616778;54;20136;-77
2021/08/16 08:24:15;;;;;;;17.70;7.27;;;;;;;19.55;69.29;100541.16;2615466;54;20190;-77
2021/08/16 08:26:40;;;;;;;15.40;8.10;;;;;;;19.62;69.03;100536.69;2615021;54;20135;-77
2021/08/16 08:29:06;;;;;;;12.20;7.23;;;;;;;19.67;68.92;100540.03;2615151;54;20146;-77
2021/08/16 08:31:31;;;;;;;13.97;6.73;;;;;;;19.71;68.90;100547.72;2614233;47;20682;-76
2021/08/16 08:33:56;;;;;;;14.90;6.87;;;;;;;19.69;67.90;100543.44;2615778;54;20135;-75
2021/08/16 08:36:21;;;;;;;13.07;6.20;;;;;;;19.56;68.72;100539.41;2615836;54;20132;-76
2021/08/16 08:38:47;;;;;;;15.03;7.40;;;;;;;19.43;70.09;100544.00;2616095;47;20163;-76
2021/08/16 08:41:16;;;;;;;13.83;6.40;;;;;;;19.72;69.26;100541.63;2616416;54;20127;-75
2021/08/16 08:43:41;;;;;;;11.13;6.07;;;;;;;19.90;69.79;100536.00;2616296;54;20140;-77
2021/08/16 08:46:07;;;;;;;14.33;7.20;;;;;;;20.15;66.68;100542.38;2616392;54;20131;-76
2021/08/16 08:48:32;;;;;;;13.97;6.37;;;;;;;20.26;66.70;100537.75;2616307;54;20151;-76
2021/08/16 08:50:59;;;;;;;15.50;6.37;;;;;;;20.43;65.94;100546.00;2616933;39;20549;-76
2021/08/16 08:53:24;;;;;;;13.87;6.37;;;;;;;20.51;65.54;100538.00;2616264;54;20124;-76
2021/08/16 08:55:50;;;;;;;13.00;6.40;;;;;;;20.65;66.11;100538.50;2615784;54;20747;-76
2021/08/16 08:58:18;;;;;;;11.40;5.87;;;;;;;20.68;65.47;100544.47;2616070;54;20230;-77
2021/08/16 09:00:43;;;;;;;10.87;5.70;;;;;;;20.68;65.10;100547.06;2616297;54;20124;-75
2021/08/16 09:03:09;;;;;;;12.33;5.97;;;;;;;20.36;65.90;100543.59;2616372;54;20180;-76
2021/08/16 09:05:47;;;;;;;12.97;6.03;;;;;;;20.38;67.07;100541.78;2616259;54;20645;-74
2021/08/16 09:08:28;;;;;;;14.40;6.30;;;;;;;20.42;65.21;100538.22;2616202;54;20147;-75
2021/08/16 09:11:11;;;;;;;15.57;6.13;;;;;;;20.37;65.07;100551.38;2616364;54;20123;-76
2021/08/16 09:13:37;;;;;;;14.73;6.10;;;;;;;20.06;65.80;100544.28;2614821;54;20152;-77
2021/08/16 09:16:10;;;;;;;12.77;6.03;;;;;;;20.08;66.14;100545.16;2614127;54;20138;-76
2021/08/16 09:18:35;;;;;;;13.97;5.90;;;;;;;20.19;66.08;100543.16;2614606;39;20720;-76
2021/08/16 09:21:00;;;;;;;14.20;6.17;;;;;;;20.03;65.52;100531.41;2613939;54;20344;-75
2021/08/16 09:23:26;;;;;;;13.57;6.33;;;;;;;20.08;65.82;100540.81;2616018;54;20160;-76
2021/08/16 09:25:56;;;;;;;14.63;6.23;;;;;;;19.98;66.11;100534.09;2616115;54;20920;-77
2021/08/16 09:28:30;;;;;;;17.93;6.33;;;;;;;19.98;66.32;100538.41;2616239;54;20144;-76
2021/08/16 09:30:56;;;;;;;13.33;5.93;;;;;;;19.89;66.89;100533.44;2615595;54;20139;-74
2021/08/16 09:33:22;;;;;;;13.13;6.27;;;;;;;19.79;67.23;100537.13;2616281;54;20134;-76
2021/08/16 09:35:58;;;;;;;14.30;6.00;;;;;;;19.75;66.87;100545.88;2616187;54;20131;-76
2021/08/16 09:38:40;;;;;;;18.27;6.17;;;;;;;19.49;68.61;100533.47;2616268;54;21030;-76
2021/08/16 09:41:21;;;;;;;20.17;6.83;;;;;;;19.48;68.13;100538.72;2616844;39;20539;-77
2021/08/16 09:43:46;;;;;;;12.70;6.57;;;;;;;19.49;68.83;100540.44;2616023;54;20892;-76
2021/08/16 09:46:14;;;;;;;15.53;7.37;;;;;;;19.34;69.78;100538.19;2630920;36;20218;-75
2021/08/16 09:48:43;;;;;;;10.53;6.50;;;;;;;19.45;70.99;100543.97;2615243;47;20179;-76
2021/08/16 09:51:08;;;;;;;15.83;7.00;;;;;;;19.40;69.90;100544.06;2616335;54;20206;-77
2021/08/16 09:53:34;;;;;;;17.13;6.97;;;;;;;19.51;69.98;100539.50;2616517;54;20657;-75
2021/08/16 09:56:02;;;;;;;11.23;6.37;;;;;;;19.39;69.86;100547.56;2616039;54;20143;-76
2021/08/16 09:58:28;;;;;;;17.13;7.13;;;;;;;19.27;70.48;100533.97;2616034;54;20144;-76
2021/08/16 10:00:56;;;;;;;14.87;6.33;;;;;;;19.31;69.69;100535.63;2616044;54;20126;-77
2021/08/16 10:03:22;;;;;;;12.37;6.00;;;;;;;19.25;69.86;100543.56;2616208;54;20132;-75
2021/08/16 10:05:49;;;;;;;12.50;5.97;;;;;;;19.21;70.30;100537.50;2616146;54;20127;-76
2021/08/16 10:08:21;;;;;;;12.47;6.10;;;;;;;19.19;71.66;100544.50;2616151;54;20131;-76
2021/08/16 10:10:48;;;;;;;11.63;5.90;;;;;;;19.12;70.75;100539.47;2616564;54;20152;-76
2021/08/16 10:13:13;;;;;;;14.23;6.50;;;;;;;19.13;71.41;100547.22;2616343;54;20229;-75
2021/08/16 10:15:44;;;;;;;8.87;5.30;;;;;;;19.17;70.24;100551.44;2616287;47;20139;-77
2021/08/16 10:18:33;;;;;;;13.17;6.30;;;;;;;19.04;71.65;100560.38;2616123;54;20155;-76
2021/08/16 10:21:01;;;;;;;11.30;6.80;;;;;;;18.94;71.90;100558.00;2615922;54;20136;-75
2021/08/16 10:23:27;;;;;;;15.77;8.17;;;;;;;18.93;72.14;100557.13;2616162;54;20124;-77
2021/08/16 10:25:54;;;;;;;14.13;8.03;;;;;;;18.75;73.76;100577.38;2616426;54;20419;-74
2021/08/16 10:28:26;;;;;;;15.17;8.23;;;;;;;18.60;74.91;100568.13;2616448;54;20669;-76
2021/08/16 10:30:52;;;;;;;11.90;7.40;;;;;;;18.43;74.49;100574.50;2616398;54;20769;-77
2021/08/16 10:33:18;;;;;;;13.10;9.00;;;;;;;18.12;76.23;100571.50;2616277;54;20127;-75
2021/08/16 10:35:43;;;;;;;15.27;8.73;;;;;;;18.14;76.84;100559.38;2616249;54;20116;-76
2021/08/16 10:38:14;;;;;;;14.40;8.70;;;;;;;18.09;77.04;100568.09;2616243;54;20146;-76
2021/08/16 10:40:45;;;;;;;16.00;9.60;;;;;;;17.96;76.61;100577.78;2617225;39;20879;-77
2021/08/16 10:43:12;;;;;;;15.87;9.43;;;;;;;17.79;78.04;100582.38;2616187;54;20119;-76
2021/08/16 10:45:49;;;;;;;10.57;7.30;;;;;;;17.83;77.53;100585.78;2616019;54;20131;-76
2021/08/16 10:48:20;;;;;;;7.90;6.17;;;;;;;17.74;78.33;100578.13;2615932;36;20241;-77
2021/08/16 10:50:45;;;;;;;7.80;4.37;;;;;;;17.54;77.14;100572.38;2616244;54;20661;-75
2021/08/16 10:53:11;;;;;;;7.37;2.87;;;;;;;17.43;76.07;100579.41;2616297;54;20160;-76
2021/08/16 10:55:38;;;;;;;4.43;2.50;;;;;;;17.45;74.94;100577.66;2616194;54;20130;-76
2021/08/16 10:58:08;;;;;;;3.37;2.27;;;;;;;17.40;76.07;100582.88;2616010;54;20668;-77
2021/08/16 11:00:34;;;;;;;3.20;2.10;;;;;;;17.24;76.88;100583.94;2616097;54;20239;-77
2021/08/16 11:02:59;;;;;;;3.77;1.97;;;;;;;17.48;76.19;100583.66;2616401;54;20151;-76
2021/08/16 11:05:33;;;;;;;4.43;2.30;;;;;;;17.51;75.74;100588.81;2616347;54;20653;-78
2021/08/16 11:08:03;;;;;;;3.47;2.23;;;;;;;17.51;76.56;100580.16;2616448;39;20568;-76
2021/08/16 11:10:37;;;;;;;3.00;2.10;;;;;;;17.47;76.95;100594.03;2616185;54;20165;-77
2021/08/16 11:13:15;;;;;;;4.07;2.10;;;;;;;17.62;76.21;100586.06;2616261;54;20123;-74
2021/08/16 11:15:41;;;;;;;3.67;2.10;;;;;;;17.60;76.88;100591.25;2615915;54;20151;-76